TimeCST,TemperatureF,Dew PointF,Humidity,Sea Level PressureIn,VisibilityMPH,Wind Direction,Wind SpeedMPH,Gust SpeedMPH,PrecipitationIn,Events,Conditions,WindDirDegrees,DateUTC
12:13 AM,12.2,8.6,85,29.99,7.0,NW,15.0,21.9,N/A,Snow,Light Snow,310,2013-02-03 06:13:00
12:33 AM,10.4,8.6,92,29.99,10.0,NW,12.7,21.9,N/A,,Overcast,310,2013-02-03 06:33:00
12:52 AM,10.4,8.6,92,30.00,10.0,NW,13.8,19.6,N/A,,Overcast,310,2013-02-03 06:52:00
1:13 AM,10.4,6.8,85,30.01,7.0,NW,15.0,27.6,N/A,,Mostly Cloudy,310,2013-02-03 07:13:00
1:33 AM,10.4,6.8,85,30.02,10.0,WNW,11.5,19.6,N/A,,Mostly Cloudy,300,2013-02-03 07:33:00
1:52 AM,8.6,5.0,85,30.02,10.0,NW,15.0,24.2,N/A,,Scattered Clouds,310,2013-02-03 07:52:00
2:13 AM,8.6,5.0,85,30.03,10.0,WNW,12.7,19.6,N/A,,Mostly Cloudy,300,2013-02-03 08:13:00
2:33 AM,8.6,5.0,85,30.03,10.0,WNW,10.4,16.1,N/A,,Scattered Clouds,300,2013-02-03 08:33:00
2:52 AM,8.6,3.2,79,30.01,10.0,WNW,8.1,-,N/A,,Clear,290,2013-02-03 08:52:00
3:13 AM,6.8,3.2,85,30.03,10.0,WNW,11.5,18.4,N/A,,Clear,300,2013-02-03 09:13:00
3:33 AM,6.8,3.2,85,30.04,10.0,WNW,10.4,16.1,N/A,,Clear,290,2013-02-03 09:33:00
3:52 AM,6.8,3.2,85,30.04,10.0,WNW,12.7,-,N/A,,Clear,290,2013-02-03 09:52:00
4:13 AM,6.8,3.2,85,30.04,10.0,WNW,10.4,19.6,N/A,,Clear,300,2013-02-03 10:13:00
4:33 AM,6.8,1.4,79,30.04,10.0,WNW,11.5,16.1,N/A,,Clear,300,2013-02-03 10:33:00
4:52 AM,5.0,1.4,85,30.05,10.0,WNW,13.8,18.4,N/A,,Clear,300,2013-02-03 10:52:00
5:13 AM,5.0,1.4,85,30.05,10.0,WNW,10.4,18.4,N/A,,Clear,300,2013-02-03 11:13:00
5:33 AM,5.0,-0.4,78,30.05,10.0,WNW,10.4,-,N/A,,Clear,300,2013-02-03 11:33:00
5:52 AM,3.2,-0.4,85,30.04,10.0,WNW,6.9,-,N/A,,Clear,300,2013-02-03 11:52:00
6:13 AM,3.2,-0.4,85,30.05,10.0,WNW,6.9,-,N/A,,Clear,290,2013-02-03 12:13:00
6:32 AM,3.2,-0.4,85,30.05,10.0,WNW,8.1,-,N/A,,Scattered Clouds,300,2013-02-03 12:32:00
6:53 AM,5.0,1.4,85,30.05,10.0,WNW,6.9,-,N/A,,Mostly Cloudy,290,2013-02-03 12:53:00
7:13 AM,6.8,1.4,79,30.05,10.0,WNW,8.1,-,N/A,,Overcast,290,2013-02-03 13:13:00
7:32 AM,6.8,1.4,79,30.05,10.0,WNW,9.2,-,N/A,,Overcast,300,2013-02-03 13:32:00
7:53 AM,6.8,1.4,79,30.05,10.0,NW,9.2,-,N/A,,Overcast,310,2013-02-03 13:53:00
8:13 AM,6.8,3.2,85,30.06,10.0,WNW,6.9,-,N/A,,Overcast,300,2013-02-03 14:13:00
8:32 AM,8.6,3.2,79,30.06,10.0,NW,8.1,-,N/A,,Overcast,310,2013-02-03 14:32:00
8:53 AM,8.6,3.2,79,30.06,10.0,NW,6.9,-,N/A,,Mostly Cloudy,310,2013-02-03 14:53:00
9:12 AM,8.6,3.2,79,30.05,10.0,NW,6.9,-,N/A,,Mostly Cloudy,320,2013-02-03 15:12:00
9:33 AM,8.6,1.4,73,30.06,10.0,NW,6.9,-,N/A,,Mostly Cloudy,310,2013-02-03 15:33:00
9:53 AM,8.6,3.2,79,30.06,10.0,NW,4.6,-,N/A,,Mostly Cloudy,310,2013-02-03 15:53:00
10:12 AM,8.6,1.4,73,30.06,10.0,NW,4.6,-,N/A,,Mostly Cloudy,310,2013-02-03 16:12:00
10:33 AM,10.4,1.4,67,30.08,10.0,WNW,8.1,-,N/A,,Overcast,300,2013-02-03 16:33:00
10:53 AM,10.4,1.4,67,30.06,10.0,WNW,5.8,-,N/A,,Overcast,300,2013-02-03 16:53:00
11:12 AM,10.4,3.2,73,30.06,4.0,NW,4.6,-,N/A,Snow,Light Snow,310,2013-02-03 17:12:00
11:33 AM,10.4,3.2,73,30.06,7.0,West,5.8,-,N/A,Snow,Light Snow,280,2013-02-03 17:33:00
11:53 AM,10.4,3.2,73,30.05,4.0,NW,3.5,-,N/A,Snow,Light Snow,310,2013-02-03 17:53:00
12:12 PM,10.4,5.0,79,30.04,4.0,WNW,3.5,-,N/A,Snow,Light Snow,290,2013-02-03 18:12:00
12:33 PM,10.4,3.2,73,30.03,7.0,Calm,Calm,-,N/A,Snow,Light Snow,0,2013-02-03 18:33:00
12:53 PM,10.4,3.2,73,30.03,5.0,West,3.5,-,N/A,Snow,Light Snow,280,2013-02-03 18:53:00
1:10 PM,10.4,5.0,79,30.02,4.0,Calm,Calm,-,N/A,Snow,Light Snow,0,2013-02-03 19:10:00
1:33 PM,10.4,5.0,79,30.00,3.0,Calm,Calm,-,N/A,Snow,Light Snow,0,2013-02-03 19:33:00
1:52 PM,10.4,6.8,85,29.99,5.0,Calm,Calm,-,N/A,Snow,Light Snow,0,2013-02-03 19:52:00
2:13 PM,12.2,6.8,79,29.98,10.0,East,3.5,-,N/A,,Overcast,100,2013-02-03 20:13:00
2:33 PM,12.2,6.8,79,29.98,10.0,ESE,3.5,-,N/A,,Overcast,110,2013-02-03 20:33:00
2:52 PM,12.2,6.8,79,29.97,10.0,Calm,Calm,-,N/A,,Overcast,0,2013-02-03 20:52:00
3:13 PM,12.2,6.8,79,29.96,10.0,East,3.5,-,N/A,,Overcast,90,2013-02-03 21:13:00
3:33 PM,12.2,6.8,79,29.96,10.0,Calm,Calm,-,N/A,,Overcast,0,2013-02-03 21:33:00
3:53 PM,12.2,6.8,79,29.96,10.0,Calm,Calm,-,N/A,,Overcast,0,2013-02-03 21:53:00
4:13 PM,12.2,6.8,79,29.96,10.0,Calm,Calm,-,N/A,,Overcast,0,2013-02-03 22:13:00
4:33 PM,12.2,6.8,79,29.95,10.0,Calm,Calm,-,N/A,,Overcast,0,2013-02-03 22:33:00
4:52 PM,12.2,6.8,79,29.96,10.0,Calm,Calm,-,N/A,,Overcast,0,2013-02-03 22:52:00
5:13 PM,10.4,6.8,85,29.96,1.8,Calm,Calm,-,N/A,Snow,Light Snow,0,2013-02-03 23:13:00
5:33 PM,10.4,8.6,92,29.95,1.8,Calm,Calm,-,N/A,Snow,Light Snow,0,2013-02-03 23:33:00
5:52 PM,10.4,8.6,92,29.96,2.5,Calm,Calm,-,N/A,Snow,Light Snow,0,2013-02-03 23:52:00
6:13 PM,10.4,8.6,92,29.96,3.0,Calm,Calm,-,N/A,Snow,Light Snow,0,2013-02-04 00:13:00
6:32 PM,10.4,8.6,92,29.96,5.0,Calm,Calm,-,N/A,Snow,Light Snow,0,2013-02-04 00:32:00
6:53 PM,10.4,8.6,92,29.95,7.0,East,3.5,-,N/A,Snow,Light Snow,80,2013-02-04 00:53:00
7:13 PM,10.4,8.6,92,29.95,7.0,Calm,Calm,-,N/A,,Overcast,0,2013-02-04 01:13:00
7:53 PM,10.4,8.6,92,29.95,3.0,NNE,4.6,-,N/A,Snow,Light Snow,30,2013-02-04 01:53:00
8:13 PM,10.4,8.6,92,29.94,2.5,ENE,4.6,-,N/A,Snow,Light Snow,60,2013-02-04 02:13:00
8:32 PM,10.4,8.6,92,29.94,4.0,NE,5.8,-,N/A,Snow,Light Snow,40,2013-02-04 02:32:00
8:53 PM,10.4,8.6,92,29.94,7.0,NE,6.9,-,N/A,Snow,Light Snow,40,2013-02-04 02:53:00
9:13 PM,10.4,8.6,92,29.95,5.0,NE,4.6,-,N/A,Snow,Light Snow,40,2013-02-04 03:13:00
9:32 PM,10.4,8.6,92,29.95,4.0,NE,4.6,-,N/A,Snow,Light Snow,50,2013-02-04 03:32:00
9:53 PM,10.4,8.6,92,29.95,1.8,NE,4.6,-,N/A,Snow,Light Snow,50,2013-02-04 03:53:00
10:13 PM,10.4,8.6,92,29.95,2.0,NE,4.6,-,N/A,Snow,Light Snow,50,2013-02-04 04:13:00
10:32 PM,10.4,8.6,92,29.94,2.5,NE,5.8,-,N/A,Snow,Light Snow,50,2013-02-04 04:32:00
10:53 PM,10.4,8.6,92,29.95,2.5,NNE,6.9,-,N/A,Snow,Light Snow,30,2013-02-04 04:53:00
11:13 PM,10.4,8.6,92,29.95,5.0,NNE,8.1,-,N/A,Snow,Light Snow,30,2013-02-04 05:13:00
11:32 PM,10.4,8.6,92,29.94,4.0,NE,3.5,-,N/A,Snow,Light Snow,50,2013-02-04 05:32:00
11:53 PM,10.4,8.6,92,29.96,7.0,NNE,6.9,-,N/A,Snow,Light Snow,20,2013-02-04 05:53:00